Cape May Whale Watcher — WDE7979 — position and weather

sailwx.info

Track history (hours):
 
Tides and Currents Weather Stations Pressure Air Temp Water Temp Dewpoint Dewpoint Depression Visibility Wind Speed Wind Dir Waves Ship Positions

Cape May Whale Watcher

Owner: Spirit of Cape May, LLC, North Cape May, NJ. More information available from US FCC via Universal Licensing System and Coast Guard Vessel Documentation Center.

Last reported at 2018-Jun-24 20:02 UTC. Time now 2018-Jun-25 00:24 UTC.
Position N 38°57' W 074°55'.

; draft 2.4 m.

Type: Passenger vessel. MMSI: 367400050.

Date/timePositionNaut miles runAvg speedWind from/ knotsBaromVisibWave heightAir tempDewpointWater temp
2018-Jun-24 20:02N 38°57' W 074°55'0 3.5
2018-Jun-24 20:00N 38°57' W 074°55'0 0.0
2018-Jun-24 16:32N 38°57' W 074°55'0 5.5
2018-Jun-24 16:30N 38°57' W 074°55'5 9.1
2018-Jun-24 15:58N 38°59' W 075°01'4 6.3
2018-Jun-24 15:16N 38°56' W 074°56'2 7.3
2018-Jun-24 14:58N 38°57' W 074°59'1 2.7
2018-Jun-24 14:31N 38°58' W 074°58'2 0.1
2018-Jun-22 18:45N 38°56' W 075°00'4 0.2
2018-Jun-22 00:31N 38°57' W 074°55'0 5.1
2018-Jun-22 00:30N 38°57' W 074°55'2 0.1
2018-Jun-20 23:31N 38°56' W 074°55'0 0.4
2018-Jun-20 23:13N 38°56' W 074°55'2 9.1
2018-Jun-20 23:00N 38°56' W 074°52'2 0.7
2018-Jun-20 20:00N 38°57' W 074°55'3 6.6
2018-Jun-20 19:29N 38°54' W 074°53'611.2
2018-Jun-20 18:55N 38°48' W 074°56'510.2
2018-Jun-20 18:27N 38°53' W 074°57'4 8.6
2018-Jun-20 18:00N 38°56' W 074°59'1 2.2
2018-Jun-20 17:30N 38°57' W 074°58'1 0.3
2018-Jun-20 15:03N 38°57' W 074°58'5 0.1
2018-Jun-18 23:04N 38°56' W 074°52'1 4.2
2018-Jun-18 22:47N 38°57' W 074°53'0 0.1
2018-Jun-18 19:58N 38°57' W 074°53'4 8.8
2018-Jun-18 19:28N 38°53' W 074°50'4 5.1
2018-Jun-18 18:37N 38°54' W 074°56'5 1.2
2018-Jun-18 14:37N 38°58' W 074°58'0 1.3
2018-Jun-18 14:30N 38°58' W 074°58'2 0.1
2018-Jun-17 14:54N 38°56' W 074°58'4 0.1
2018-Jun-16 12:15N 38°57' W 074°54'  
Track history (hours):
 
Tides and Currents Weather Stations Pressure Air Temp Water Temp Dewpoint Dewpoint Depression Visibility Wind Speed Wind Dir Waves Ship Positions

Cape May Whale Watcher

Owner: Spirit of Cape May, LLC, North Cape May, NJ. More information available from US FCC via Universal Licensing System and Coast Guard Vessel Documentation Center.

Last reported at 2018-Jun-24 20:02 UTC. Time now 2018-Jun-25 00:24 UTC.
Position N 38°57' W 074°55'.

; draft 2.4 m.

Type: Passenger vessel. MMSI: 367400050.

Date/timePositionNaut miles runAvg speedWind from/ knotsBaromVisibWave heightAir tempDewpointWater temp
2018-Jun-24 20:02N 38°57' W 074°55'0 3.5
2018-Jun-24 20:00N 38°57' W 074°55'0 0.0
2018-Jun-24 16:32N 38°57' W 074°55'0 5.5
2018-Jun-24 16:30N 38°57' W 074°55'5 9.1
2018-Jun-24 15:58N 38°59' W 075°01'4 6.3
2018-Jun-24 15:16N 38°56' W 074°56'2 7.3
2018-Jun-24 14:58N 38°57' W 074°59'1 2.7
2018-Jun-24 14:31N 38°58' W 074°58'2 0.1
2018-Jun-22 18:45N 38°56' W 075°00'4 0.2
2018-Jun-22 00:31N 38°57' W 074°55'0 5.1
2018-Jun-22 00:30N 38°57' W 074°55'2 0.1
2018-Jun-20 23:31N 38°56' W 074°55'0 0.4
2018-Jun-20 23:13N 38°56' W 074°55'2 9.1
2018-Jun-20 23:00N 38°56' W 074°52'2 0.7
2018-Jun-20 20:00N 38°57' W 074°55'3 6.6
2018-Jun-20 19:29N 38°54' W 074°53'611.2
2018-Jun-20 18:55N 38°48' W 074°56'510.2
2018-Jun-20 18:27N 38°53' W 074°57'4 8.6
2018-Jun-20 18:00N 38°56' W 074°59'1 2.2
2018-Jun-20 17:30N 38°57' W 074°58'1 0.3
2018-Jun-20 15:03N 38°57' W 074°58'5 0.1
2018-Jun-18 23:04N 38°56' W 074°52'1 4.2
2018-Jun-18 22:47N 38°57' W 074°53'0 0.1
2018-Jun-18 19:58N 38°57' W 074°53'4 8.8
2018-Jun-18 19:28N 38°53' W 074°50'4 5.1
2018-Jun-18 18:37N 38°54' W 074°56'5 1.2
2018-Jun-18 14:37N 38°58' W 074°58'0 1.3
2018-Jun-18 14:30N 38°58' W 074°58'2 0.1
2018-Jun-17 14:54N 38°56' W 074°58'4 0.1
2018-Jun-16 12:15N 38°57' W 074°54'  

Dump ship's entire track history